Time;durP1;ratioP1;P1;durP2;ratioP2;P2;SDS_P1;SDS_P2;PMS_P1;PMS_P2;Temp;Humidity;BMP_temperature;BMP_pressure;BME280_temperature;BME280_humidity;BME280_pressure;Samples;Min_cycle;Max_cycle;Signal;HPM_P1;HPM_P2
2022/06/08 00:02:19;;;;;;;9.40;7.78;;;20.10;68.00;;;;;;5038936;28;20061;-45
2022/06/08 00:04:46;;;;;;;10.52;8.10;;;20.10;67.50;;;;;;5040049;28;20125;-49
2022/06/08 00:07:17;;;;;;;8.48;7.05;;;20.00;67.30;;;;;;5036959;28;20057;-44
2022/06/08 00:09:47;;;;;;;7.38;6.45;;;19.90;67.40;;;;;;5043089;28;20045;-46
2022/06/08 00:12:16;;;;;;;9.50;7.15;;;19.90;67.10;;;;;;5051666;28;20037;-49
2022/06/08 00:14:43;;;;;;;8.65;7.28;;;19.80;67.20;;;;;;5042244;28;20079;-45
2022/06/08 00:17:18;;;;;;;7.55;6.82;;;19.80;67.30;;;;;;5044011;28;20040;-48
2022/06/08 00:19:45;;;;;;;10.15;6.40;;;19.70;67.30;;;;;;5044167;28;20045;-49
2022/06/08 00:22:12;;;;;;;9.27;6.05;;;19.70;67.30;;;;;;5051385;28;20041;-50
2022/06/08 00:24:39;;;;;;;8.05;6.82;;;19.60;68.00;;;;;;5029556;28;20088;-47
2022/06/08 00:27:05;;;;;;;6.97;5.70;;;19.50;67.30;;;;;;5031895;28;20053;-46
2022/06/08 00:29:32;;;;;;;8.05;6.28;;;19.60;67.40;;;;;;5039225;28;20034;-49
2022/06/08 00:32:01;;;;;;;7.38;5.55;;;19.50;67.30;;;;;;5030025;28;20045;-47
2022/06/08 00:34:35;;;;;;;5.68;5.13;;;19.40;66.90;;;;;;5020774;28;20038;-46
2022/06/08 00:37:07;;;;;;;7.00;5.23;;;19.40;66.80;;;;;;5022583;28;20047;-47
2022/06/08 00:39:37;;;;;;;7.75;5.75;;;19.40;67.10;;;;;;5042135;28;20497;-46
2022/06/08 00:42:08;;;;;;;6.13;5.53;;;19.30;67.00;;;;;;5028160;28;20065;-46
2022/06/08 00:44:43;;;;;;;5.85;5.20;;;19.20;67.40;;;;;;5031350;28;20068;-52
2022/06/08 00:47:19;;;;;;;6.07;5.25;;;19.20;67.50;;;;;;5030684;28;20053;-46
2022/06/08 00:49:58;;;;;;;5.25;4.75;;;19.20;67.60;;;;;;5042991;28;20045;-48
2022/06/08 00:52:29;;;;;;;5.00;4.60;;;19.10;67.40;;;;;;5030762;28;20038;-50
2022/06/08 00:55:04;;;;;;;5.63;4.63;;;19.00;67.20;;;;;;5028106;28;20079;-45
2022/06/08 00:57:44;;;;;;;4.60;3.97;;;19.00;67.30;;;;;;5007881;28;20045;-45
2022/06/08 01:00:28;;;;;;;4.60;4.20;;;19.00;66.90;;;;;;5028248;28;20049;-47
2022/06/08 01:02:55;;;;;;;;;;;18.90;66.90;;;;;;5012479;28;20049;-48
2022/06/08 01:05:37;;;;;;;5.00;3.42;;;18.90;66.60;;;;;;5020485;28;19920;-49
2022/06/08 01:08:28;;;;;;;4.72;3.38;;;18.80;66.10;;;;;;5046145;28;20049;-50
2022/06/08 01:11:05;;;;;;;6.55;3.80;;;18.80;66.40;;;;;;5028151;28;20052;-50
2022/06/08 01:13:35;;;;;;;7.28;4.18;;;18.70;66.80;;;;;;5020591;28;20041;-48
2022/06/08 01:16:10;;;;;;;3.78;3.25;;;18.70;67.20;;;;;;5031187;28;20044;-49
2022/06/08 01:18:39;;;;;;;4.32;3.25;;;18.60;67.70;;;;;;5050256;28;20049;-51
2022/06/08 01:21:22;;;;;;;4.07;3.70;;;18.60;67.60;;;;;;5015424;28;20382;-50
2022/06/08 01:24:01;;;;;;;3.60;3.30;;;18.60;68.10;;;;;;5018910;28;20077;-51
2022/06/08 01:26:58;;;;;;;3.72;3.42;;;18.50;67.90;;;;;;5031082;28;20041;-51
2022/06/08 01:29:33;;;;;;;4.18;2.92;;;18.50;68.40;;;;;;5016679;28;20073;-50
2022/06/08 01:32:35;;;;;;;4.43;2.88;;;18.50;67.90;;;;;;5031660;28;20421;-49
2022/06/08 01:35:26;;;;;;;12.57;3.28;;;18.50;68.50;;;;;;5023388;28;20053;-50
2022/06/08 01:38:18;;;;;;;5.45;3.30;;;18.50;67.80;;;;;;5027677;28;20046;-49
2022/06/08 01:40:56;;;;;;;3.10;2.78;;;18.40;68.10;;;;;;5014608;28;20049;-49
2022/06/08 01:43:39;;;;;;;3.85;3.20;;;18.40;67.50;;;;;;5040179;28;20081;-48
2022/06/08 01:46:22;;;;;;;3.55;3.25;;;18.40;67.80;;;;;;5031047;28;20045;-48
2022/06/08 01:49:10;;;;;;;3.17;2.88;;;18.30;68.40;;;;;;5016117;28;20071;-50
2022/06/08 01:51:53;;;;;;;3.97;3.08;;;18.30;68.30;;;;;;5037870;28;20047;-49
2022/06/08 01:54:24;;;;;;;3.38;2.95;;;18.30;68.60;;;;;;5019785;28;20044;-49
2022/06/08 01:57:13;;;;;;;3.67;3.10;;;18.30;67.80;;;;;;5039202;28;20664;-49
2022/06/08 01:59:57;;;;;;;3.08;2.63;;;18.30;68.10;;;;;;5012144;28;20051;-45
2022/06/08 02:02:33;;;;;;;3.35;3.05;;;18.30;67.50;;;;;;5029003;28;20420;-47
2022/06/08 02:05:37;;;;;;;3.60;3.25;;;18.20;67.50;;;;;;5017873;28;20513;-46
2022/06/08 02:08:23;;;;;;;3.00;2.65;;;18.20;67.50;;;;;;5006768;28;20060;-45
2022/06/08 02:10:57;;;;;;;3.40;2.40;;;18.20;66.90;;;;;;5016234;28;20045;-49
2022/06/08 02:13:49;;;;;;;3.53;3.22;;;18.10;66.70;;;;;;5027866;28;20555;-48
2022/06/08 02:16:27;;;;;;;4.93;3.90;;;18.10;67.60;;;;;;5015916;28;20126;-50
2022/06/08 02:19:06;;;;;;;4.65;3.90;;;18.10;68.20;;;;;;5029392;28;20096;-45
2022/06/08 02:21:56;;;;;;;6.18;3.78;;;18.00;69.10;;;;;;5043754;28;20041;-46
2022/06/08 02:24:40;;;;;;;7.47;4.88;;;18.00;68.90;;;;;;5034098;28;20055;-46
2022/06/08 02:27:19;;;;;;;5.13;4.00;;;18.00;69.40;;;;;;5016180;28;20088;-50
2022/06/08 02:30:07;;;;;;;7.70;4.78;;;18.00;68.40;;;;;;5018149;28;20050;-46
2022/06/08 02:35:38;;;;;;;5.63;4.95;;;17.90;67.60;;;;;;5015821;28;20447;-46
2022/06/08 02:38:14;;;;;;;5.65;4.75;;;17.90;67.30;;;;;;5026664;28;20471;-50
2022/06/08 02:40:49;;;;;;;5.63;4.63;;;17.90;67.50;;;;;;5017272;28;20056;-48
2022/06/08 02:43:31;;;;;;;8.00;4.93;;;17.80;67.20;;;;;;5031848;28;20091;-49
2022/06/08 02:46:24;;;;;;;7.38;4.50;;;17.80;67.10;;;;;;5018767;28;20141;-46
2022/06/08 02:48:53;;;;;;;8.60;4.97;;;17.80;66.80;;;;;;5020268;28;20457;-48
2022/06/08 02:51:32;;;;;;;13.65;4.75;;;17.70;66.70;;;;;;5034559;28;20421;-47
2022/06/08 02:54:26;;;;;;;7.22;5.20;;;17.70;66.50;;;;;;5010095;28;20046;-49
2022/06/08 02:57:08;;;;;;;9.77;5.05;;;17.60;66.40;;;;;;5025821;28;20516;-45
2022/06/08 02:59:40;;;;;;;6.68;4.78;;;17.60;66.40;;;;;;5032961;28;20124;-44
2022/06/08 03:02:29;;;;;;;8.70;4.90;;;17.60;66.30;;;;;;4999912;28;20037;-51
2022/06/08 03:05:24;;;;;;;6.13;4.15;;;17.50;66.40;;;;;;5012613;28;20499;-49
2022/06/08 03:07:57;;;;;;;6.07;4.78;;;17.50;66.50;;;;;;5036316;28;20076;-48
2022/06/08 03:10:30;;;;;;;8.05;4.70;;;17.40;66.40;;;;;;5034254;28;20087;-50
2022/06/08 03:13:30;;;;;;;8.15;5.05;;;17.40;66.70;;;;;;5010547;28;20057;-49
2022/06/08 03:16:01;;;;;;;6.78;5.97;;;17.30;67.20;;;;;;5013040;28;20045;-49
2022/06/08 03:18:32;;;;;;;8.80;5.05;;;17.30;67.10;;;;;;5031130;28;20091;-49
2022/06/08 03:21:02;;;;;;;7.32;5.32;;;17.30;67.20;;;;;;5021390;28;20073;-47
2022/06/08 03:23:32;;;;;;;6.40;4.65;;;17.30;67.20;;;;;;5030510;28;20084;-49
2022/06/08 03:25:59;;;;;;;5.85;4.30;;;17.30;67.30;;;;;;5015828;28;20053;-49
2022/06/08 03:28:31;;;;;;;7.07;4.35;;;17.30;67.20;;;;;;5030334;28;20091;-50
2022/06/08 03:30:58;;;;;;;5.35;4.32;;;17.30;67.50;;;;;;5014367;28;20416;-45
2022/06/08 03:33:24;;;;;;;4.68;4.15;;;17.30;67.70;;;;;;5013773;28;20497;-48
2022/06/08 03:35:53;;;;;;;6.10;4.43;;;17.30;68.10;;;;;;5040020;28;20041;-49
2022/06/08 03:38:28;;;;;;;5.65;4.80;;;17.30;68.40;;;;;;5018760;28;20073;-48
2022/06/08 03:40:58;;;;;;;6.90;5.20;;;17.40;68.80;;;;;;5031292;28;20057;-50
2022/06/08 03:43:24;;;;;;;6.72;3.90;;;17.40;68.80;;;;;;5037962;28;20103;-49
2022/06/08 03:45:57;;;;;;;4.55;4.15;;;17.50;69.20;;;;;;5033460;28;20069;-47
2022/06/08 03:48:24;;;;;;;6.25;4.68;;;17.50;69.60;;;;;;5034377;28;20441;-49
2022/06/08 03:50:55;;;;;;;4.03;3.72;;;17.60;69.60;;;;;;5013556;28;20141;-46
2022/06/08 03:53:34;;;;;;;5.78;3.70;;;17.60;69.80;;;;;;5044711;28;20048;-48
2022/06/08 03:56:05;;;;;;;4.65;4.15;;;17.70;70.20;;;;;;5012382;28;20056;-45
2022/06/08 03:58:32;;;;;;;4.95;3.67;;;17.80;70.00;;;;;;5028686;28;20053;-48
2022/06/08 04:01:07;;;;;;;3.92;3.47;;;17.80;69.90;;;;;;5022282;28;20053;-50
2022/06/08 04:03:34;;;;;;;4.15;3.17;;;17.90;69.90;;;;;;5019849;28;20049;-46
2022/06/08 04:06:01;;;;;;;4.65;3.40;;;18.00;69.90;;;;;;5025115;28;20045;-46
2022/06/08 04:08:32;;;;;;;4.70;2.85;;;18.00;70.00;;;;;;5034444;28;20052;-46
2022/06/08 04:11:04;;;;;;;4.45;3.55;;;18.10;69.90;;;;;;5012106;28;20046;-47
2022/06/08 04:13:31;;;;;;;3.80;3.25;;;18.10;69.90;;;;;;5034073;28;20041;-48
2022/06/08 04:16:06;;;;;;;3.00;2.78;;;18.20;69.90;;;;;;5013027;28;20140;-46
2022/06/08 04:18:41;;;;;;;3.80;3.00;;;18.30;69.90;;;;;;5030596;28;20509;-48
2022/06/08 04:21:12;;;;;;;5.68;3.22;;;18.30;70.00;;;;;;5019128;28;20041;-49
2022/06/08 04:23:46;;;;;;;3.65;2.95;;;18.40;69.90;;;;;;5023655;28;20064;-49
2022/06/08 04:26:18;;;;;;;3.17;2.75;;;18.40;69.90;;;;;;5024024;28;20041;-50
2022/06/08 04:28:47;;;;;;;3.90;3.13;;;18.50;69.80;;;;;;5015350;28;20049;-49
2022/06/08 04:31:19;;;;;;;3.15;2.63;;;18.50;69.70;;;;;;5024675;28;20040;-47
2022/06/08 04:33:53;;;;;;;4.70;3.10;;;18.60;69.70;;;;;;5029133;28;20669;-49
2022/06/08 04:36:25;;;;;;;3.90;3.10;;;18.70;69.70;;;;;;5016091;28;20100;-49
2022/06/08 04:38:52;;;;;;;3.92;2.78;;;18.70;69.70;;;;;;5042983;28;20041;-48
2022/06/08 04:41:20;;;;;;;3.90;2.75;;;18.70;69.70;;;;;;5017467;28;20528;-49
2022/06/08 04:43:49;;;;;;;4.68;3.03;;;18.80;69.70;;;;;;5045505;23;20044;-45
2022/06/08 04:46:17;;;;;;;2.50;2.30;;;18.80;69.70;;;;;;5021633;28;20119;-46
2022/06/08 04:48:48;;;;;;;3.00;2.63;;;18.90;69.60;;;;;;5021972;28;20056;-44
2022/06/08 04:51:17;;;;;;;4.05;2.45;;;18.90;69.60;;;;;;5009922;28;20057;-44
2022/06/08 04:53:47;;;;;;;4.35;2.60;;;19.00;69.70;;;;;;5025280;28;20119;-43
2022/06/08 04:56:15;;;;;;;2.35;1.83;;;19.10;69.70;;;;;;5009672;28;20049;-43
2022/06/08 04:58:43;;;;;;;3.10;1.92;;;19.10;69.50;;;;;;5016040;28;20809;-47
2022/06/08 05:01:10;;;;;;;3.42;2.00;;;19.20;69.30;;;;;;5037133;28;20091;-53
2022/06/08 05:03:37;;;;;;;1.60;1.50;;;19.20;69.20;;;;;;5024359;28;20067;-50
2022/06/08 05:06:05;;;;;;;2.92;1.77;;;19.20;69.20;;;;;;5021493;28;20420;-48
2022/06/08 05:08:34;;;;;;;5.10;1.80;;;19.30;69.20;;;;;;5027208;28;20045;-48
2022/06/08 05:11:05;;;;;;;1.63;1.52;;;19.40;69.20;;;;;;5024444;28;20052;-52
2022/06/08 05:13:34;;;;;;;1.58;1.30;;;19.40;69.70;;;;;;5029011;28;20045;-50
2022/06/08 05:16:08;;;;;;;2.08;1.52;;;19.40;68.90;;;;;;5020896;28;20052;-52
2022/06/08 05:18:39;;;;;;;1.42;1.33;;;19.50;68.80;;;;;;5036329;28;20045;-53
2022/06/08 05:21:12;;;;;;;2.65;1.73;;;19.50;68.80;;;;;;5020257;28;20136;-52
2022/06/08 05:23:40;;;;;;;3.35;2.28;;;19.50;68.80;;;;;;5027380;28;20055;-57
2022/06/08 05:26:12;;;;;;;2.22;2.13;;;19.50;68.70;;;;;;5034252;28;20084;-48
2022/06/08 05:28:42;;;;;;;1.75;1.65;;;19.60;68.80;;;;;;5028902;28;20432;-51
2022/06/08 05:31:10;;;;;;;4.18;1.38;;;19.60;68.60;;;;;;5029112;28;20053;-52
2022/06/08 05:33:39;;;;;;;2.45;1.67;;;19.70;68.70;;;;;;5029485;28;20052;-51
2022/06/08 05:36:12;;;;;;;1.42;1.33;;;19.70;68.70;;;;;;5035909;28;20063;-49
2022/06/08 05:38:41;;;;;;;2.30;1.17;;;19.80;68.50;;;;;;5017325;28;20053;-50
2022/06/08 05:41:08;;;;;;;3.95;1.60;;;19.80;68.30;;;;;;5009202;28;20069;-49
2022/06/08 05:43:37;;;;;;;1.50;1.38;;;19.90;68.30;;;;;;5017813;28;20049;-50
2022/06/08 05:46:04;;;;;;;1.63;1.52;;;19.90;68.20;;;;;;5035909;28;20143;-52
2022/06/08 05:48:32;;;;;;;1.50;1.35;;;19.90;68.00;;;;;;5013791;28;20048;-52
2022/06/08 05:51:03;;;;;;;3.55;1.67;;;20.00;68.00;;;;;;5046508;28;20032;-49
2022/06/08 05:53:30;;;;;;;2.50;1.48;;;20.00;67.90;;;;;;5041869;28;20437;-51
2022/06/08 05:55:57;;;;;;;2.78;1.73;;;20.10;67.90;;;;;;5025394;28;20038;-53
2022/06/08 05:58:26;;;;;;;1.50;1.40;;;20.10;68.20;;;;;;5030662;28;20049;-48
2022/06/08 06:00:57;;;;;;;2.53;1.38;;;20.20;68.70;;;;;;5019590;28;20072;-50
2022/06/08 06:03:24;;;;;;;1.45;1.23;;;20.20;68.00;;;;;;5044237;28;20793;-48
2022/06/08 06:05:51;;;;;;;2.03;1.38;;;20.30;68.00;;;;;;5043015;28;20033;-50
2022/06/08 06:08:19;;;;;;;4.47;1.30;;;20.30;67.80;;;;;;5017666;28;20064;-49
2022/06/08 06:10:50;;;;;;;2.08;1.20;;;20.40;67.80;;;;;;5018786;28;20033;-54
2022/06/08 06:13:28;;;;;;;1.92;1.35;;;20.50;67.90;;;;;;5046042;28;20512;-49
2022/06/08 06:15:57;;;;;;;2.22;1.23;;;20.50;67.60;;;;;;5027049;28;20413;-52
2022/06/08 06:18:26;;;;;;;1.60;1.35;;;20.60;67.40;;;;;;5040438;28;20492;-49
2022/06/08 06:21:20;;;;;;;1.80;1.30;;;20.70;67.20;;;;;;5020993;28;20045;-50
2022/06/08 06:24:06;;;;;;;3.13;1.48;;;20.70;67.20;;;;;;5051979;28;20111;-52
2022/06/08 06:26:57;;;;;;;2.45;1.10;;;20.80;67.00;;;;;;5007737;28;20530;-52
2022/06/08 06:29:32;;;;;;;2.40;1.25;;;20.90;66.80;;;;;;5046281;28;20053;-50
2022/06/08 06:32:28;;;;;;;1.38;1.27;;;21.00;66.50;;;;;;5029952;28;20041;-51
2022/06/08 06:34:57;;;;;;;1.25;1.15;;;21.10;66.30;;;;;;5024149;28;20054;-48
2022/06/08 06:37:26;;;;;;;1.70;1.27;;;21.10;66.10;;;;;;5031046;28;20076;-49
2022/06/08 06:39:53;;;;;;;4.78;1.08;;;21.20;66.00;;;;;;5045290;28;20045;-48
2022/06/08 06:42:27;;;;;;;2.88;1.17;;;21.30;65.90;;;;;;5032396;28;20040;-55
2022/06/08 06:45:26;;;;;;;1.40;0.77;;;21.40;65.50;;;;;;5043287;28;20049;-55
2022/06/08 06:48:01;;;;;;;3.50;1.13;;;21.40;65.50;;;;;;5050913;28;20063;-51
2022/06/08 06:50:31;;;;;;;3.42;1.35;;;21.50;65.20;;;;;;5017209;28;20050;-51
2022/06/08 06:52:59;;;;;;;3.17;1.02;;;21.50;65.00;;;;;;5048231;28;20041;-49
2022/06/08 06:55:34;;;;;;;1.15;1.05;;;21.60;64.90;;;;;;5031708;28;20041;-49
2022/06/08 06:58:10;;;;;;;1.30;0.90;;;21.60;64.60;;;;;;5013902;28;20060;-49
2022/06/08 07:00:39;;;;;;;0.93;0.88;;;21.60;64.20;;;;;;5022019;28;20095;-49
2022/06/08 07:03:09;;;;;;;1.20;0.80;;;21.70;64.00;;;;;;5024561;28;20042;-49
2022/06/08 07:05:38;;;;;;;3.22;1.05;;;21.70;64.00;;;;;;5029746;28;20466;-52
2022/06/08 07:08:09;;;;;;;2.05;1.85;;;21.70;64.00;;;;;;5034833;28;20055;-49
2022/06/08 07:10:36;;;;;;;1.63;1.00;;;21.80;64.10;;;;;;5033783;28;20072;-55
2022/06/08 07:13:06;;;;;;;1.00;0.82;;;21.80;64.10;;;;;;5037980;28;20584;-50
2022/06/08 07:15:37;;;;;;;2.70;1.20;;;21.90;64.00;;;;;;5025000;28;20041;-50
2022/06/08 07:18:04;;;;;;;2.92;1.13;;;21.90;63.80;;;;;;5044324;28;20041;-48
2022/06/08 07:20:32;;;;;;;1.50;1.00;;;22.00;63.90;;;;;;5047279;28;20445;-48
2022/06/08 07:22:59;;;;;;;1.95;1.02;;;22.00;63.50;;;;;;5022959;28;20037;-54
2022/06/08 07:25:26;;;;;;;1.42;1.05;;;22.10;63.50;;;;;;5039631;28;20440;-53
2022/06/08 07:27:53;;;;;;;1.70;1.08;;;22.20;63.40;;;;;;5045281;28;20052;-49
2022/06/08 07:30:20;;;;;;;2.28;1.10;;;22.20;63.20;;;;;;5040681;28;20508;-49
2022/06/08 07:32:47;;;;;;;3.10;1.27;;;22.30;63.20;;;;;;5049172;28;20065;-51
2022/06/08 07:35:13;;;;;;;1.23;1.13;;;22.30;63.10;;;;;;5043541;28;20044;-49
2022/06/08 07:37:40;;;;;;;1.25;1.02;;;22.40;63.00;;;;;;5032315;28;20037;-52
2022/06/08 07:40:08;;;;;;;5.03;2.25;;;22.40;62.90;;;;;;5032642;28;20047;-48
2022/06/08 07:42:37;;;;;;;4.65;2.17;;;22.50;62.30;;;;;;5051508;28;20110;-53
2022/06/08 07:45:06;;;;;;;3.42;1.60;;;22.60;62.60;;;;;;5044051;28;20398;-50
2022/06/08 07:47:33;;;;;;;1.92;1.15;;;22.60;62.20;;;;;;5039120;28;20069;-53
2022/06/08 07:49:59;;;;;;;2.45;1.23;;;22.60;62.00;;;;;;5038840;28;20041;-50
2022/06/08 07:52:27;;;;;;;2.35;1.52;;;22.70;62.00;;;;;;5031385;28;20045;-51
2022/06/08 07:54:54;;;;;;;3.28;1.60;;;22.70;61.90;;;;;;5044693;28;20504;-50
2022/06/08 07:57:25;;;;;;;1.23;1.17;;;22.80;62.00;;;;;;5045588;28;20551;-53
2022/06/08 07:59:54;;;;;;;4.22;1.52;;;22.80;62.20;;;;;;5030295;28;20041;-49
2022/06/08 08:02:21;;;;;;;4.75;1.25;;;23.00;61.80;;;;;;5050263;28;20045;-50
2022/06/08 08:04:48;;;;;;;2.20;1.30;;;23.00;61.90;;;;;;5043498;28;20597;-52
2022/06/08 08:07:18;;;;;;;1.05;1.00;;;23.10;61.30;;;;;;5026908;28;20065;-49
2022/06/08 08:09:44;;;;;;;2.70;1.33;;;23.10;61.10;;;;;;5036833;28;20504;-50
2022/06/08 08:12:12;;;;;;;3.10;1.20;;;23.20;61.10;;;;;;5038401;28;20068;-50
2022/06/08 08:14:39;;;;;;;2.30;1.17;;;23.30;61.60;;;;;;5044742;28;20404;-49
2022/06/08 08:17:06;;;;;;;2.20;1.38;;;23.30;60.90;;;;;;5042242;28;20041;-50
2022/06/08 08:19:34;;;;;;;1.55;1.20;;;23.40;60.20;;;;;;5031052;28;20102;-51
2022/06/08 08:22:01;;;;;;;1.00;0.90;;;23.50;60.20;;;;;;5047426;28;20048;-49
2022/06/08 08:24:28;;;;;;;2.58;1.00;;;23.60;59.90;;;;;;5048165;28;20094;-52
2022/06/08 08:26:56;;;;;;;2.10;1.15;;;23.70;59.30;;;;;;5024148;28;20049;-49
2022/06/08 08:29:25;;;;;;;2.53;0.93;;;23.80;59.30;;;;;;5036527;28;20041;-54
2022/06/08 08:31:51;;;;;;;1.00;1.00;;;23.90;59.30;;;;;;5035393;28;20467;-52
2022/06/08 08:34:18;;;;;;;1.88;1.02;;;23.90;58.70;;;;;;5049865;28;20511;-49
2022/06/08 08:36:45;;;;;;;3.88;1.40;;;24.10;58.50;;;;;;5041804;28;20561;-48
2022/06/08 08:39:15;;;;;;;3.15;1.40;;;24.10;58.50;;;;;;5050102;28;20503;-50
2022/06/08 08:44:44;;;;;;;3.60;1.05;;;24.30;57.60;;;;;;5045669;28;20091;-52
2022/06/08 08:47:33;;;;;;;4.20;1.30;;;24.40;57.00;;;;;;5047475;28;20052;-49
2022/06/08 08:50:30;;;;;;;3.10;1.20;;;24.50;55.90;;;;;;5043422;28;20044;-49
2022/06/08 08:53:40;;;;;;;2.33;0.90;;;24.60;56.00;;;;;;5038857;28;20146;-49
2022/06/08 08:56:13;;;;;;;2.85;1.20;;;24.70;55.80;;;;;;4968015;28;20406;-50
2022/06/08 08:58:43;;;;;;;3.33;1.17;;;24.70;55.70;;;;;;5030384;28;20099;-50
2022/06/08 09:01:13;;;;;;;6.80;1.30;;;24.70;55.00;;;;;;5036424;28;20045;-53
2022/06/08 09:03:44;;;;;;;2.72;1.25;;;24.60;54.70;;;;;;5040411;28;20041;-50
2022/06/08 09:06:26;;;;;;;3.03;1.10;;;24.60;54.60;;;;;;5036951;28;20227;-49
2022/06/08 09:09:03;;;;;;;2.65;1.42;;;24.60;55.30;;;;;;5011909;28;20060;-51
2022/06/08 09:11:38;;;;;;;2.10;1.27;;;24.60;55.20;;;;;;5045288;28;20044;-51
2022/06/08 09:14:23;;;;;;;3.63;1.50;;;24.60;54.50;;;;;;5043184;28;20067;-51
2022/06/08 09:17:18;;;;;;;3.17;1.20;;;24.50;54.30;;;;;;5042056;28;20041;-51
2022/06/08 09:19:50;;;;;;;2.58;1.60;;;24.50;54.10;;;;;;5029046;28;20671;-51
2022/06/08 09:22:17;;;;;;;3.03;1.48;;;24.40;54.10;;;;;;5042355;28;20052;-51
2022/06/08 09:24:49;;;;;;;4.35;1.48;;;24.30;54.70;;;;;;5039977;28;20533;-51
2022/06/08 09:27:22;;;;;;;;;;;24.20;54.40;;;;;;5050745;28;20412;-53
2022/06/08 09:30:02;;;;;;;3.13;1.40;;;24.20;55.20;;;;;;5044020;28;19924;-49
2022/06/08 09:32:44;;;;;;;1.95;1.13;;;24.10;54.60;;;;;;5040601;28;20038;-51
2022/06/08 09:35:23;;;;;;;;;;;24.10;54.50;;;;;;5031276;28;20408;-49
2022/06/08 09:37:53;;;;;;;3.38;1.50;;;24.10;55.50;;;;;;5046034;28;19947;-50
2022/06/08 09:40:38;;;;;;;4.13;1.15;;;24.00;54.60;;;;;;5039014;28;20042;-49
2022/06/08 09:43:30;;;;;;;3.53;1.40;;;24.00;54.10;;;;;;5028861;28;20500;-49
2022/06/08 09:46:05;;;;;;;7.63;1.80;;;24.00;54.60;;;;;;5034769;28;20562;-51
2022/06/08 09:51:50;;;;;;;3.83;1.65;;;24.00;54.20;;;;;;5039654;28;20099;-50
2022/06/08 09:54:41;;;;;;;14.27;1.95;;;24.00;54.40;;;;;;5045399;28;20523;-49
2022/06/08 09:57:24;;;;;;;4.30;1.40;;;24.00;53.60;;;;;;5040584;28;20033;-50
2022/06/08 10:00:17;;;;;;;7.43;1.73;;;24.00;53.10;;;;;;5038758;28;20052;-49
2022/06/08 10:03:11;;;;;;;6.05;1.52;;;24.00;53.10;;;;;;5032540;28;20057;-48
2022/06/08 10:06:04;;;;;;;3.25;1.20;;;24.00;53.70;;;;;;5034956;28;20090;-48
2022/06/08 10:08:40;;;;;;;5.63;1.80;;;23.90;53.40;;;;;;5031160;28;20072;-51
2022/06/08 10:11:37;;;;;;;4.03;1.48;;;24.00;53.70;;;;;;5027348;28;20714;-49
2022/06/08 10:14:16;;;;;;;4.82;1.67;;;24.00;53.90;;;;;;5027338;28;20041;-51
2022/06/08 10:16:59;;;;;;;10.93;2.20;;;24.00;53.50;;;;;;5042948;28;20049;-51
2022/06/08 10:19:43;;;;;;;2.47;1.35;;;24.10;53.50;;;;;;5038928;28;20124;-51
2022/06/08 10:22:10;;;;;;;3.40;1.50;;;24.10;53.10;;;;;;5027682;28;20053;-50
2022/06/08 10:24:50;;;;;;;4.57;1.70;;;24.10;54.30;;;;;;5037634;28;20762;-49
2022/06/08 10:27:24;;;;;;;4.38;2.00;;;24.10;53.30;;;;;;5043443;28;20048;-49
2022/06/08 10:30:21;;;;;;;5.95;1.75;;;24.10;53.30;;;;;;5023506;28;20045;-51
2022/06/08 10:32:53;;;;;;;6.32;1.73;;;24.10;53.60;;;;;;5029484;28;20522;-51
2022/06/08 10:35:42;;;;;;;3.22;1.80;;;24.10;54.10;;;;;;5043418;28;20039;-49
2022/06/08 10:38:26;;;;;;;6.95;2.20;;;24.10;53.80;;;;;;5039972;28;20037;-49
2022/06/08 10:44:03;;;;;;;3.30;1.58;;;24.00;53.90;;;;;;5042763;28;20037;-49
2022/06/08 10:46:51;;;;;;;3.53;1.50;;;24.00;54.70;;;;;;5039291;28;20594;-49
2022/06/08 10:49:38;;;;;;;3.53;1.70;;;23.90;55.00;;;;;;5041848;28;20501;-54
2022/06/08 10:52:17;;;;;;;8.05;2.42;;;23.80;55.30;;;;;;5041627;28;20071;-48
2022/06/08 10:54:58;;;;;;;6.05;1.70;;;23.60;56.00;;;;;;5040010;28;20577;-51
2022/06/08 10:57:32;;;;;;;2.65;1.55;;;23.50;55.70;;;;;;5018308;28;20041;-50
2022/06/08 11:00:18;;;;;;;2.70;1.52;;;23.30;56.00;;;;;;5043621;28;20562;-49
2022/06/08 11:03:01;;;;;;;4.72;1.80;;;23.10;56.60;;;;;;5047477;28;20051;-50
2022/06/08 11:05:47;;;;;;;5.43;1.77;;;22.90;57.80;;;;;;5039394;28;20049;-48
2022/06/08 11:08:20;;;;;;;4.70;2.03;;;22.80;58.10;;;;;;5048432;28;20056;-49
2022/06/08 11:10:51;;;;;;;4.20;2.83;;;22.60;59.40;;;;;;5049419;28;20044;-50
2022/06/08 11:13:24;;;;;;;6.05;2.58;;;22.40;59.70;;;;;;5052245;28;20045;-50
2022/06/08 11:16:26;;;;;;;3.08;2.47;;;22.30;60.30;;;;;;5018962;28;20624;-51
2022/06/08 11:19:02;;;;;;;4.30;1.80;;;22.20;60.80;;;;;;5046859;28;20041;-52
2022/06/08 11:21:37;;;;;;;2.40;1.88;;;22.10;61.50;;;;;;5038031;28;20566;-49
2022/06/08 11:24:36;;;;;;;4.32;2.10;;;22.20;62.30;;;;;;5039245;28;20094;-55
2022/06/08 11:27:21;;;;;;;5.28;2.47;;;21.90;62.90;;;;;;5038521;28;20083;-51
2022/06/08 11:29:51;;;;;;;4.35;1.70;;;21.80;63.70;;;;;;5044280;28;20094;-52
2022/06/08 11:32:38;;;;;;;2.50;1.70;;;21.80;63.20;;;;;;5031889;28;20734;-53
2022/06/08 11:35:14;;;;;;;2.80;1.50;;;21.70;63.40;;;;;;5050014;22;20050;-50
2022/06/08 11:38:16;;;;;;;2.25;1.33;;;21.70;64.00;;;;;;5031073;28;20041;-52
2022/06/08 11:40:44;;;;;;;4.80;2.20;;;21.70;63.90;;;;;;5002964;28;20053;-49
2022/06/08 11:43:11;;;;;;;4.30;2.15;;;21.60;63.50;;;;;;5031787;28;20045;-54
2022/06/08 11:45:47;;;;;;;5.40;1.88;;;21.60;64.00;;;;;;5029474;28;20045;-54
2022/06/08 11:48:24;;;;;;;4.57;1.90;;;21.60;64.30;;;;;;5008937;28;20045;-54
2022/06/08 11:50:59;;;;;;;2.85;1.60;;;21.60;63.90;;;;;;5023528;28;20045;-54
2022/06/08 11:53:32;;;;;;;1.52;1.10;;;21.60;64.20;;;;;;5014963;28;20789;-52
2022/06/08 11:56:17;;;;;;;4.72;2.00;;;21.60;64.00;;;;;;5028150;28;20092;-49
2022/06/08 11:58:51;;;;;;;4.57;1.27;;;21.60;64.20;;;;;;5024368;28;20045;-52
2022/06/08 12:01:22;;;;;;;5.82;1.92;;;21.60;64.30;;;;;;5030200;28;20197;-51
2022/06/08 12:04:09;;;;;;;3.30;1.80;;;21.60;64.30;;;;;;5029838;28;20062;-54
2022/06/08 12:06:39;;;;;;;3.63;1.58;;;21.60;64.60;;;;;;5027462;28;20037;-50
2022/06/08 12:09:14;;;;;;;3.10;1.73;;;21.60;64.50;;;;;;5027456;28;20087;-49
2022/06/08 12:11:44;;;;;;;5.32;1.48;;;21.60;64.70;;;;;;5022598;28;20042;-53
2022/06/08 12:14:18;;;;;;;3.13;1.60;;;21.60;65.20;;;;;;5030507;28;20099;-53
2022/06/08 12:17:03;;;;;;;4.40;1.75;;;21.60;65.00;;;;;;5025343;28;20457;-53
2022/06/08 12:19:43;;;;;;;4.05;1.73;;;21.60;64.80;;;;;;5029962;28;20037;-53
2022/06/08 12:22:20;;;;;;;3.80;2.13;;;21.60;65.00;;;;;;5030619;28;20049;-54
2022/06/08 12:25:09;;;;;;;2.40;1.38;;;21.60;65.10;;;;;;5025007;28;20052;-52
2022/06/08 12:27:46;;;;;;;4.72;1.63;;;21.50;65.20;;;;;;5029389;28;20042;-54
2022/06/08 12:30:22;;;;;;;4.30;1.15;;;21.50;65.30;;;;;;5025109;28;20049;-54
2022/06/08 12:32:54;;;;;;;2.30;1.55;;;21.50;64.80;;;;;;5029595;28;20030;-51
2022/06/08 12:35:28;;;;;;;4.13;1.83;;;21.40;64.70;;;;;;5019883;28;20197;-54
2022/06/08 12:38:24;;;;;;;3.78;2.15;;;21.50;64.90;;;;;;5027135;28;20037;-54
2022/06/08 12:41:03;;;;;;;3.22;1.20;;;21.40;65.20;;;;;;5023715;28;20517;-54
2022/06/08 12:43:39;;;;;;;3.47;1.58;;;21.30;65.00;;;;;;5029738;28;20046;-53
2022/06/08 12:46:18;;;;;;;4.10;1.63;;;21.30;66.20;;;;;;5022820;28;20115;-51
2022/06/08 12:48:58;;;;;;;5.43;1.80;;;21.20;65.80;;;;;;5022939;28;20056;-55
2022/06/08 12:51:29;;;;;;;1.98;0.98;;;21.10;66.00;;;;;;5029572;28;20050;-54
2022/06/08 12:53:56;;;;;;;3.97;0.93;;;21.00;66.00;;;;;;5006279;28;20104;-54
2022/06/08 12:56:23;;;;;;;1.63;1.00;;;20.90;66.40;;;;;;5022325;28;20038;-51
2022/06/08 12:58:52;;;;;;;2.28;1.20;;;20.80;67.20;;;;;;5036843;28;20042;-53
2022/06/08 13:01:21;;;;;;;1.67;1.00;;;20.80;67.20;;;;;;5029025;28;20099;-54
2022/06/08 13:03:49;;;;;;;1.38;0.90;;;20.70;67.90;;;;;;5000833;28;20052;-52
2022/06/08 13:06:16;;;;;;;1.63;1.20;;;20.70;68.60;;;;;;5013458;28;20103;-54
2022/06/08 13:08:43;;;;;;;1.42;0.77;;;20.70;68.40;;;;;;5007713;28;20060;-54
2022/06/08 13:11:18;;;;;;;2.05;1.15;;;20.80;68.10;;;;;;5016085;28;20095;-53
2022/06/08 13:13:45;;;;;;;1.90;0.80;;;20.70;68.70;;;;;;5011103;28;20548;-54
2022/06/08 13:16:21;;;;;;;1.05;1.00;;;20.70;68.60;;;;;;5016051;28;20045;-55
2022/06/08 13:18:53;;;;;;;2.95;1.10;;;20.80;68.60;;;;;;5009139;28;20042;-51
2022/06/08 13:21:21;;;;;;;1.23;0.80;;;20.80;68.80;;;;;;5016293;28;20041;-53
2022/06/08 13:23:50;;;;;;;1.45;0.90;;;20.90;68.50;;;;;;5006091;28;20049;-54
2022/06/08 13:26:24;;;;;;;2.25;0.90;;;21.00;68.50;;;;;;5015483;28;20137;-55
2022/06/08 13:28:52;;;;;;;4.07;1.10;;;21.00;68.20;;;;;;5008979;28;20540;-53
2022/06/08 13:31:24;;;;;;;1.50;0.85;;;21.00;68.40;;;;;;5017662;28;20049;-54
2022/06/08 13:33:56;;;;;;;1.67;1.20;;;21.10;67.90;;;;;;5010160;28;20107;-53
2022/06/08 13:36:25;;;;;;;1.90;0.85;;;21.10;68.00;;;;;;5019413;28;20078;-53
2022/06/08 13:39:01;;;;;;;1.40;0.80;;;21.10;67.60;;;;;;5005130;28;20042;-52
2022/06/08 13:41:27;;;;;;;1.08;0.80;;;21.10;67.80;;;;;;5019817;28;20046;-49